Sunday, July 22, 2018, 2:35 AM EDT
Back to Local

KBGR, Bangor Int'l Airport

Location: Bangor, ME, United States Lat: 44.8
Local Time: 2:35 AM EDT ( 6:35 GMT) Lon: -68.817
Time Zone: US/Eastern Elev: 193 ft

Show me the last for .
Show Decoded

2018-07-22 01:53 METAR KBGR 220553Z 00000KT 10SM CLR 13/11 A3018 RMK AO2 SLP215 T01330111 10222
                 20122 53001 $ =
2018-07-22 00:53 METAR KBGR 220453Z 00000KT 10SM FEW250 13/11 A3017 RMK AO2 SLP212 T01280106
                 402940111 $ =
2018-07-21 23:53 METAR KBGR 220353Z 00000KT 10SM FEW250 14/11 A3017 RMK AO2 SLP213 T01390111 =
2018-07-21 22:53 METAR KBGR 220253Z 16004KT 10SM FEW250 17/11 A3017 RMK AO2 SLP214 T01670106
                 51007 =
2018-07-21 21:53 METAR KBGR 220153Z 18004KT 10SM FEW250 19/12 A3017 RMK AO2 SLP214 T01890122 =
2018-07-21 20:53 METAR KBGR 220053Z 20007KT 10SM FEW250 21/12 A3016 RMK AO2 SLP211 T02060122 =
2018-07-21 19:53 METAR KBGR 212353Z 16009KT 10SM FEW250 22/13 A3015 RMK AO2 SLP206 T02220128
                 10294 20222 53009 =
2018-07-21 18:53 METAR KBGR 212253Z 18010KT 10SM FEW250 25/13 A3014 RMK AO2 SLP203 T02500128 =
2018-07-21 17:53 METAR KBGR 212153Z 18010KT 10SM FEW250 27/13 A3012 RMK AO2 SLP197 T02720133 =
2018-07-21 16:53 METAR KBGR 212053Z 20008KT 10SM FEW250 28/13 A3012 RMK AO2 SLP197 T02830128
                 56010 =
2018-07-21 15:53 METAR KBGR 211953Z 21005KT 10SM FEW250 28/13 A3013 RMK AO2 SLP199 T02830128 =
2018-07-21 14:53 METAR KBGR 211853Z 22006KT 10SM FEW250 28/13 A3014 RMK AO2 SLP202 T02830133 =
2018-07-21 13:53 METAR KBGR 211753Z VRB04KT 10SM CLR 27/12 A3015 RMK AO2 SLP207 T02720122 10278
                 20183 58012 =
2018-07-21 12:53 METAR KBGR 211653Z 08007KT 10SM CLR 27/11 A3016 RMK AO2 SLP211 T02720111 =
2018-07-21 11:53 METAR KBGR 211553Z 00000KT 10SM CLR 26/12 A3019 RMK AO2 SLP219 T02560122 =
2018-07-21 10:53 METAR KBGR 211453Z 10003KT 10SM CLR 25/11 A3019 RMK AO2 SLP219 T02500111 56006 =
2018-07-21 09:53 METAR KBGR 211353Z 19003KT 10SM CLR 23/10 A3019 RMK AO2 SLP220 T02280100 =
2018-07-21 08:53 METAR KBGR 211253Z VRB03KT 10SM CLR 22/13 A3020 RMK AO2 SLP223 T02220133 =
2018-07-21 07:53 METAR KBGR 211153Z 00000KT 10SM CLR 18/15 A3021 RMK AO2 SLP225 7//// T01830150
                 10183 20111 51006 =
2018-07-21 06:53 METAR KBGR 211053Z 00000KT 10SM CLR 15/14 A3020 RMK AO2 SLP225 MIFG S AND NW
                 T01500139 $ =
2018-07-21 05:53 METAR KBGR 210953Z 00000KT 10SM R15/6000VP6000FT CLR 12/12 A3019 RMK AO2 SLP221
                 VIS W-NW 1 MIFG S AND W-NW T01220122 $ =
2018-07-21 04:53 METAR KBGR 210853Z 00000KT 10SM CLR 12/12 A3019 RMK AO2 SLP219 MIFG SW-NW
                 T01170117 58000 $ =
2018-07-21 03:53 METAR KBGR 210753Z 00000KT 10SM CLR 13/13 A3019 RMK AO2 SLP219 T01330133 $ =
2018-07-21 02:53 METAR KBGR 210653Z 00000KT 10SM CLR 13/13 A3019 RMK AO2 SLP221 T01330133 $ =

Support USWX by starting your Amazon purchase here.